sensor_id;sensor_type;location;lat;lon;timestamp;P1;durP1;ratioP1;P2;durP2;ratioP2
79480;SDS011;68944;48.262;14.208;2023-09-19T00:01:39;3.58;;;1.00;;
79480;SDS011;68944;48.262;14.208;2023-09-19T00:04:11;5.45;;;1.50;;
79480;SDS011;68944;48.262;14.208;2023-09-19T00:06:38;6.60;;;1.50;;
79480;SDS011;68944;48.262;14.208;2023-09-19T00:09:04;5.60;;;1.60;;
79480;SDS011;68944;48.262;14.208;2023-09-19T00:11:30;4.60;;;1.23;;
79480;SDS011;68944;48.262;14.208;2023-09-19T00:13:56;3.55;;;1.20;;
79480;SDS011;68944;48.262;14.208;2023-09-19T00:16:24;3.65;;;1.10;;
79480;SDS011;68944;48.262;14.208;2023-09-19T00:18:50;3.97;;;1.20;;
79480;SDS011;68944;48.262;14.208;2023-09-19T00:21:16;4.93;;;1.10;;
79480;SDS011;68944;48.262;14.208;2023-09-19T00:23:42;3.72;;;1.20;;
79480;SDS011;68944;48.262;14.208;2023-09-19T00:26:07;5.15;;;1.30;;
79480;SDS011;68944;48.262;14.208;2023-09-19T00:28:33;3.72;;;1.20;;
79480;SDS011;68944;48.262;14.208;2023-09-19T00:30:58;3.83;;;1.30;;
79480;SDS011;68944;48.262;14.208;2023-09-19T00:33:27;4.03;;;1.35;;
79480;SDS011;68944;48.262;14.208;2023-09-19T00:35:54;3.60;;;1.20;;
79480;SDS011;68944;48.262;14.208;2023-09-19T00:38:22;18.17;;;1.30;;
79480;SDS011;68944;48.262;14.208;2023-09-19T00:40:52;5.03;;;1.20;;
79480;SDS011;68944;48.262;14.208;2023-09-19T00:43:18;4.22;;;1.20;;
79480;SDS011;68944;48.262;14.208;2023-09-19T00:45:44;4.00;;;1.30;;
79480;SDS011;68944;48.262;14.208;2023-09-19T00:48:13;2.78;;;1.20;;
79480;SDS011;68944;48.262;14.208;2023-09-19T00:50:44;4.15;;;1.20;;
79480;SDS011;68944;48.262;14.208;2023-09-19T00:53:14;4.10;;;1.35;;
79480;SDS011;68944;48.262;14.208;2023-09-19T00:55:44;6.45;;;1.50;;
79480;SDS011;68944;48.262;14.208;2023-09-19T00:58:10;3.90;;;1.50;;
79480;SDS011;68944;48.262;14.208;2023-09-19T01:00:36;5.85;;;1.45;;
79480;SDS011;68944;48.262;14.208;2023-09-19T01:03:03;5.28;;;1.60;;
79480;SDS011;68944;48.262;14.208;2023-09-19T01:05:29;5.22;;;1.27;;
79480;SDS011;68944;48.262;14.208;2023-09-19T01:07:55;5.43;;;1.30;;
79480;SDS011;68944;48.262;14.208;2023-09-19T01:10:21;3.25;;;1.25;;
79480;SDS011;68944;48.262;14.208;2023-09-19T01:20:39;4.60;;;1.30;;
79480;SDS011;68944;48.262;14.208;2023-09-19T01:23:23;4.43;;;1.25;;
79480;SDS011;68944;48.262;14.208;2023-09-19T01:31:28;7.22;;;1.83;;
79480;SDS011;68944;48.262;14.208;2023-09-19T01:33:59;6.10;;;1.13;;
79480;SDS011;68944;48.262;14.208;2023-09-19T01:36:27;3.60;;;1.20;;
79480;SDS011;68944;48.262;14.208;2023-09-19T01:38:54;3.45;;;1.15;;
79480;SDS011;68944;48.262;14.208;2023-09-19T01:41:26;3.58;;;0.95;;
79480;SDS011;68944;48.262;14.208;2023-09-19T01:43:58;4.13;;;1.10;;
79480;SDS011;68944;48.262;14.208;2023-09-19T01:46:35;5.45;;;1.38;;
79480;SDS011;68944;48.262;14.208;2023-09-19T01:49:11;3.42;;;1.00;;
79480;SDS011;68944;48.262;14.208;2023-09-19T01:52:02;5.90;;;1.20;;
79480;SDS011;68944;48.262;14.208;2023-09-19T01:54:36;4.50;;;1.35;;
79480;SDS011;68944;48.262;14.208;2023-09-19T01:57:16;4.47;;;1.35;;
79480;SDS011;68944;48.262;14.208;2023-09-19T01:59:48;8.13;;;2.00;;
79480;SDS011;68944;48.262;14.208;2023-09-19T02:02:19;3.33;;;1.08;;
79480;SDS011;68944;48.262;14.208;2023-09-19T02:04:48;3.47;;;1.20;;
79480;SDS011;68944;48.262;14.208;2023-09-19T02:07:16;3.58;;;1.35;;
79480;SDS011;68944;48.262;14.208;2023-09-19T02:09:42;4.72;;;0.88;;
79480;SDS011;68944;48.262;14.208;2023-09-19T02:12:09;3.25;;;1.10;;
79480;SDS011;68944;48.262;14.208;2023-09-19T02:14:34;3.53;;;0.90;;
79480;SDS011;68944;48.262;14.208;2023-09-19T02:17:02;3.83;;;1.10;;
79480;SDS011;68944;48.262;14.208;2023-09-19T02:19:32;2.75;;;0.90;;
79480;SDS011;68944;48.262;14.208;2023-09-19T02:21:59;4.03;;;0.98;;
79480;SDS011;68944;48.262;14.208;2023-09-19T02:24:28;3.28;;;1.00;;
79480;SDS011;68944;48.262;14.208;2023-09-19T02:26:54;5.63;;;1.10;;
79480;SDS011;68944;48.262;14.208;2023-09-19T02:29:21;6.78;;;1.20;;
79480;SDS011;68944;48.262;14.208;2023-09-19T02:31:47;3.13;;;0.90;;
79480;SDS011;68944;48.262;14.208;2023-09-19T02:34:14;3.10;;;1.15;;
79480;SDS011;68944;48.262;14.208;2023-09-19T02:36:42;4.80;;;1.40;;
79480;SDS011;68944;48.262;14.208;2023-09-19T02:39:09;6.10;;;1.42;;
79480;SDS011;68944;48.262;14.208;2023-09-19T02:41:36;6.22;;;1.40;;
79480;SDS011;68944;48.262;14.208;2023-09-19T02:44:02;5.47;;;1.38;;
79480;SDS011;68944;48.262;14.208;2023-09-19T02:46:28;3.83;;;1.02;;
79480;SDS011;68944;48.262;14.208;2023-09-19T02:48:54;3.95;;;1.10;;
79480;SDS011;68944;48.262;14.208;2023-09-19T02:51:20;5.20;;;1.15;;
79480;SDS011;68944;48.262;14.208;2023-09-19T02:53:45;3.42;;;1.20;;
79480;SDS011;68944;48.262;14.208;2023-09-19T02:56:12;4.55;;;1.20;;
79480;SDS011;68944;48.262;14.208;2023-09-19T02:58:38;4.18;;;1.00;;
79480;SDS011;68944;48.262;14.208;2023-09-19T03:01:10;5.45;;;1.20;;
79480;SDS011;68944;48.262;14.208;2023-09-19T03:03:40;5.82;;;1.50;;
79480;SDS011;68944;48.262;14.208;2023-09-19T03:06:06;4.00;;;1.27;;
79480;SDS011;68944;48.262;14.208;2023-09-19T03:08:34;5.35;;;1.52;;
79480;SDS011;68944;48.262;14.208;2023-09-19T03:11:04;5.70;;;1.30;;
79480;SDS011;68944;48.262;14.208;2023-09-19T03:13:32;5.72;;;1.50;;
79480;SDS011;68944;48.262;14.208;2023-09-19T03:15:58;3.55;;;1.20;;
79480;SDS011;68944;48.262;14.208;2023-09-19T03:18:26;4.82;;;1.42;;
79480;SDS011;68944;48.262;14.208;2023-09-19T03:20:55;8.68;;;1.55;;
79480;SDS011;68944;48.262;14.208;2023-09-19T03:23:22;6.63;;;1.40;;
79480;SDS011;68944;48.262;14.208;2023-09-19T03:25:48;4.32;;;1.40;;
79480;SDS011;68944;48.262;14.208;2023-09-19T03:28:14;5.00;;;1.63;;
79480;SDS011;68944;48.262;14.208;2023-09-19T03:30:41;5.03;;;1.75;;
79480;SDS011;68944;48.262;14.208;2023-09-19T03:33:07;4.50;;;1.50;;
79480;SDS011;68944;48.262;14.208;2023-09-19T03:35:34;8.25;;;1.77;;
79480;SDS011;68944;48.262;14.208;2023-09-19T03:38:00;6.22;;;1.80;;
79480;SDS011;68944;48.262;14.208;2023-09-19T03:40:26;6.03;;;1.70;;
79480;SDS011;68944;48.262;14.208;2023-09-19T03:42:52;5.53;;;1.60;;
79480;SDS011;68944;48.262;14.208;2023-09-19T03:45:17;5.07;;;1.60;;
79480;SDS011;68944;48.262;14.208;2023-09-19T03:47:47;6.03;;;2.13;;
79480;SDS011;68944;48.262;14.208;2023-09-19T03:50:13;5.65;;;1.70;;
79480;SDS011;68944;48.262;14.208;2023-09-19T03:52:43;6.60;;;1.90;;
79480;SDS011;68944;48.262;14.208;2023-09-19T03:55:09;5.60;;;2.10;;
79480;SDS011;68944;48.262;14.208;2023-09-19T03:57:36;5.75;;;1.67;;
79480;SDS011;68944;48.262;14.208;2023-09-19T04:00:02;5.50;;;2.10;;
79480;SDS011;68944;48.262;14.208;2023-09-19T04:02:38;4.55;;;1.92;;
79480;SDS011;68944;48.262;14.208;2023-09-19T04:05:05;5.45;;;1.90;;
79480;SDS011;68944;48.262;14.208;2023-09-19T04:07:30;5.80;;;1.80;;
79480;SDS011;68944;48.262;14.208;2023-09-19T04:09:56;5.88;;;1.92;;
79480;SDS011;68944;48.262;14.208;2023-09-19T04:12:21;7.47;;;2.03;;
79480;SDS011;68944;48.262;14.208;2023-09-19T04:14:47;6.57;;;1.75;;
79480;SDS011;68944;48.262;14.208;2023-09-19T04:17:13;4.57;;;1.58;;
79480;SDS011;68944;48.262;14.208;2023-09-19T04:19:39;4.15;;;1.35;;
79480;SDS011;68944;48.262;14.208;2023-09-19T04:22:06;5.45;;;1.60;;
79480;SDS011;68944;48.262;14.208;2023-09-19T04:24:31;6.03;;;1.65;;
79480;SDS011;68944;48.262;14.208;2023-09-19T04:26:57;5.57;;;1.48;;
79480;SDS011;68944;48.262;14.208;2023-09-19T04:29:24;6.47;;;1.42;;
79480;SDS011;68944;48.262;14.208;2023-09-19T04:31:51;8.00;;;1.83;;
79480;SDS011;68944;48.262;14.208;2023-09-19T04:34:17;6.63;;;1.40;;
79480;SDS011;68944;48.262;14.208;2023-09-19T04:36:43;5.07;;;1.38;;
79480;SDS011;68944;48.262;14.208;2023-09-19T04:39:09;4.95;;;1.48;;
79480;SDS011;68944;48.262;14.208;2023-09-19T04:41:36;6.72;;;1.67;;
79480;SDS011;68944;48.262;14.208;2023-09-19T04:44:04;7.63;;;1.30;;
79480;SDS011;68944;48.262;14.208;2023-09-19T04:46:30;5.47;;;1.40;;
79480;SDS011;68944;48.262;14.208;2023-09-19T04:48:56;8.07;;;2.67;;
79480;SDS011;68944;48.262;14.208;2023-09-19T04:51:21;4.88;;;1.60;;
79480;SDS011;68944;48.262;14.208;2023-09-19T04:53:47;4.85;;;1.38;;
79480;SDS011;68944;48.262;14.208;2023-09-19T04:56:13;4.22;;;1.33;;
79480;SDS011;68944;48.262;14.208;2023-09-19T04:58:38;3.33;;;1.30;;
79480;SDS011;68944;48.262;14.208;2023-09-19T05:01:04;4.15;;;1.15;;
79480;SDS011;68944;48.262;14.208;2023-09-19T05:03:29;4.43;;;1.52;;
79480;SDS011;68944;48.262;14.208;2023-09-19T05:05:55;4.95;;;1.30;;
79480;SDS011;68944;48.262;14.208;2023-09-19T05:08:20;5.15;;;1.30;;
79480;SDS011;68944;48.262;14.208;2023-09-19T05:10:47;5.30;;;1.42;;
79480;SDS011;68944;48.262;14.208;2023-09-19T05:13:14;4.65;;;1.42;;
79480;SDS011;68944;48.262;14.208;2023-09-19T05:15:39;4.13;;;1.30;;
79480;SDS011;68944;48.262;14.208;2023-09-19T05:18:05;4.40;;;1.40;;
79480;SDS011;68944;48.262;14.208;2023-09-19T05:20:31;6.47;;;1.35;;
79480;SDS011;68944;48.262;14.208;2023-09-19T05:23:02;4.40;;;1.35;;
79480;SDS011;68944;48.262;14.208;2023-09-19T05:25:28;4.10;;;1.20;;
79480;SDS011;68944;48.262;14.208;2023-09-19T05:27:56;6.72;;;1.55;;
79480;SDS011;68944;48.262;14.208;2023-09-19T05:30:23;5.57;;;1.20;;
79480;SDS011;68944;48.262;14.208;2023-09-19T05:32:49;5.70;;;1.00;;
79480;SDS011;68944;48.262;14.208;2023-09-19T05:35:15;4.60;;;1.30;;
79480;SDS011;68944;48.262;14.208;2023-09-19T05:37:41;4.13;;;1.38;;
79480;SDS011;68944;48.262;14.208;2023-09-19T05:40:06;3.47;;;1.10;;
79480;SDS011;68944;48.262;14.208;2023-09-19T05:42:37;7.18;;;1.20;;
79480;SDS011;68944;48.262;14.208;2023-09-19T05:45:04;2.92;;;1.00;;
79480;SDS011;68944;48.262;14.208;2023-09-19T05:47:31;5.07;;;1.50;;
79480;SDS011;68944;48.262;14.208;2023-09-19T05:49:57;5.15;;;1.48;;
79480;SDS011;68944;48.262;14.208;2023-09-19T05:52:24;4.85;;;1.20;;
79480;SDS011;68944;48.262;14.208;2023-09-19T05:54:49;4.32;;;1.27;;
79480;SDS011;68944;48.262;14.208;2023-09-19T05:57:15;5.25;;;1.20;;
79480;SDS011;68944;48.262;14.208;2023-09-19T05:59:41;5.43;;;1.00;;
79480;SDS011;68944;48.262;14.208;2023-09-19T06:02:08;5.18;;;1.30;;
79480;SDS011;68944;48.262;14.208;2023-09-19T06:04:35;5.22;;;1.13;;
79480;SDS011;68944;48.262;14.208;2023-09-19T06:07:00;2.55;;;1.05;;
79480;SDS011;68944;48.262;14.208;2023-09-19T06:09:30;3.50;;;1.20;;
79480;SDS011;68944;48.262;14.208;2023-09-19T06:11:57;4.40;;;1.23;;
79480;SDS011;68944;48.262;14.208;2023-09-19T06:14:23;4.03;;;1.25;;
79480;SDS011;68944;48.262;14.208;2023-09-19T06:16:49;4.88;;;1.30;;
79480;SDS011;68944;48.262;14.208;2023-09-19T06:19:15;2.60;;;0.90;;
79480;SDS011;68944;48.262;14.208;2023-09-19T06:21:40;3.92;;;1.10;;
79480;SDS011;68944;48.262;14.208;2023-09-19T06:24:06;6.60;;;1.20;;
79480;SDS011;68944;48.262;14.208;2023-09-19T06:26:32;6.38;;;1.20;;
79480;SDS011;68944;48.262;14.208;2023-09-19T06:28:57;6.18;;;1.30;;
79480;SDS011;68944;48.262;14.208;2023-09-19T06:31:24;4.78;;;1.60;;
79480;SDS011;68944;48.262;14.208;2023-09-19T06:33:51;5.88;;;1.48;;
79480;SDS011;68944;48.262;14.208;2023-09-19T06:36:17;3.92;;;1.10;;
79480;SDS011;68944;48.262;14.208;2023-09-19T06:38:44;4.97;;;1.20;;
79480;SDS011;68944;48.262;14.208;2023-09-19T06:41:10;7.20;;;1.27;;
79480;SDS011;68944;48.262;14.208;2023-09-19T06:43:37;5.15;;;1.30;;
79480;SDS011;68944;48.262;14.208;2023-09-19T06:46:02;4.60;;;1.27;;
79480;SDS011;68944;48.262;14.208;2023-09-19T06:48:29;3.70;;;1.20;;
79480;SDS011;68944;48.262;14.208;2023-09-19T06:50:58;4.45;;;1.30;;
79480;SDS011;68944;48.262;14.208;2023-09-19T06:53:30;5.95;;;1.20;;
79480;SDS011;68944;48.262;14.208;2023-09-19T06:55:59;3.05;;;1.00;;
79480;SDS011;68944;48.262;14.208;2023-09-19T06:58:25;3.80;;;1.30;;
79480;SDS011;68944;48.262;14.208;2023-09-19T07:00:51;5.18;;;1.20;;
79480;SDS011;68944;48.262;14.208;2023-09-19T07:03:16;5.90;;;1.40;;
79480;SDS011;68944;48.262;14.208;2023-09-19T07:05:47;4.70;;;1.83;;
79480;SDS011;68944;48.262;14.208;2023-09-19T07:08:13;4.20;;;1.35;;
79480;SDS011;68944;48.262;14.208;2023-09-19T07:10:39;5.10;;;1.50;;
79480;SDS011;68944;48.262;14.208;2023-09-19T07:13:07;5.53;;;1.40;;
79480;SDS011;68944;48.262;14.208;2023-09-19T07:15:36;5.25;;;1.40;;
79480;SDS011;68944;48.262;14.208;2023-09-19T07:18:11;6.07;;;1.40;;
79480;SDS011;68944;48.262;14.208;2023-09-19T07:20:39;4.95;;;1.60;;
79480;SDS011;68944;48.262;14.208;2023-09-19T07:23:11;5.22;;;1.27;;
79480;SDS011;68944;48.262;14.208;2023-09-19T07:25:40;4.53;;;1.30;;
79480;SDS011;68944;48.262;14.208;2023-09-19T07:28:06;4.50;;;1.20;;
79480;SDS011;68944;48.262;14.208;2023-09-19T07:30:31;6.18;;;1.20;;
79480;SDS011;68944;48.262;14.208;2023-09-19T07:32:57;4.53;;;1.40;;
79480;SDS011;68944;48.262;14.208;2023-09-19T07:35:23;3.53;;;1.20;;
79480;SDS011;68944;48.262;14.208;2023-09-19T07:37:48;6.22;;;1.50;;
79480;SDS011;68944;48.262;14.208;2023-09-19T07:40:18;5.20;;;1.40;;
79480;SDS011;68944;48.262;14.208;2023-09-19T07:42:45;8.15;;;1.33;;
79480;SDS011;68944;48.262;14.208;2023-09-19T07:45:12;4.28;;;1.65;;
79480;SDS011;68944;48.262;14.208;2023-09-19T07:47:48;5.22;;;1.52;;
79480;SDS011;68944;48.262;14.208;2023-09-19T07:50:16;8.77;;;1.60;;
79480;SDS011;68944;48.262;14.208;2023-09-19T07:52:44;5.40;;;1.42;;
79480;SDS011;68944;48.262;14.208;2023-09-19T07:55:10;5.93;;;1.67;;
79480;SDS011;68944;48.262;14.208;2023-09-19T07:57:36;5.25;;;1.30;;
79480;SDS011;68944;48.262;14.208;2023-09-19T08:00:02;5.38;;;1.42;;
79480;SDS011;68944;48.262;14.208;2023-09-19T08:02:37;3.90;;;1.17;;
79480;SDS011;68944;48.262;14.208;2023-09-19T08:05:03;3.97;;;1.30;;
79480;SDS011;68944;48.262;14.208;2023-09-19T08:07:32;5.22;;;1.50;;
79480;SDS011;68944;48.262;14.208;2023-09-19T08:09:58;5.53;;;1.20;;
79480;SDS011;68944;48.262;14.208;2023-09-19T08:12:24;6.45;;;1.42;;
79480;SDS011;68944;48.262;14.208;2023-09-19T08:14:49;5.10;;;1.40;;
79480;SDS011;68944;48.262;14.208;2023-09-19T08:17:15;5.50;;;1.30;;
79480;SDS011;68944;48.262;14.208;2023-09-19T08:19:41;4.15;;;1.30;;
79480;SDS011;68944;48.262;14.208;2023-09-19T08:22:10;4.68;;;1.30;;
79480;SDS011;68944;48.262;14.208;2023-09-19T08:24:35;5.35;;;1.42;;
79480;SDS011;68944;48.262;14.208;2023-09-19T08:27:03;5.50;;;1.30;;
79480;SDS011;68944;48.262;14.208;2023-09-19T08:29:30;4.45;;;1.40;;
79480;SDS011;68944;48.262;14.208;2023-09-19T08:31:56;4.50;;;1.52;;
79480;SDS011;68944;48.262;14.208;2023-09-19T08:34:22;6.60;;;1.60;;
79480;SDS011;68944;48.262;14.208;2023-09-19T08:36:52;5.00;;;1.30;;
79480;SDS011;68944;48.262;14.208;2023-09-19T08:39:21;4.80;;;1.60;;
79480;SDS011;68944;48.262;14.208;2023-09-19T08:41:47;6.32;;;1.45;;
79480;SDS011;68944;48.262;14.208;2023-09-19T08:44:13;6.15;;;1.55;;
79480;SDS011;68944;48.262;14.208;2023-09-19T08:46:40;4.50;;;1.30;;
79480;SDS011;68944;48.262;14.208;2023-09-19T08:55:07;6.57;;;1.98;;
79480;SDS011;68944;48.262;14.208;2023-09-19T08:57:35;6.72;;;1.60;;
79480;SDS011;68944;48.262;14.208;2023-09-19T09:00:06;6.03;;;1.30;;
79480;SDS011;68944;48.262;14.208;2023-09-19T09:02:37;3.97;;;1.15;;
79480;SDS011;68944;48.262;14.208;2023-09-19T09:05:07;7.25;;;1.10;;
79480;SDS011;68944;48.262;14.208;2023-09-19T09:07:36;3.80;;;1.20;;
79480;SDS011;68944;48.262;14.208;2023-09-19T09:10:03;4.75;;;1.30;;
79480;SDS011;68944;48.262;14.208;2023-09-19T09:12:29;6.25;;;1.50;;
79480;SDS011;68944;48.262;14.208;2023-09-19T09:14:55;5.55;;;1.40;;
79480;SDS011;68944;48.262;14.208;2023-09-19T09:17:22;4.55;;;1.40;;
79480;SDS011;68944;48.262;14.208;2023-09-19T09:19:52;4.07;;;1.20;;
79480;SDS011;68944;48.262;14.208;2023-09-19T09:22:18;3.03;;;1.20;;
79480;SDS011;68944;48.262;14.208;2023-09-19T09:24:56;4.35;;;1.30;;
79480;SDS011;68944;48.262;14.208;2023-09-19T09:27:30;3.85;;;1.17;;
79480;SDS011;68944;48.262;14.208;2023-09-19T09:29:57;4.93;;;1.05;;
79480;SDS011;68944;48.262;14.208;2023-09-19T09:34:56;3.38;;;1.10;;
79480;SDS011;68944;48.262;14.208;2023-09-19T09:37:23;4.15;;;1.10;;
79480;SDS011;68944;48.262;14.208;2023-09-19T09:39:54;5.05;;;1.30;;
79480;SDS011;68944;48.262;14.208;2023-09-19T09:42:34;3.83;;;0.90;;
79480;SDS011;68944;48.262;14.208;2023-09-19T09:48:06;3.83;;;1.40;;
79480;SDS011;68944;48.262;14.208;2023-09-19T09:50:54;3.40;;;1.27;;
79480;SDS011;68944;48.262;14.208;2023-09-19T09:53:27;7.05;;;1.20;;
79480;SDS011;68944;48.262;14.208;2023-09-19T09:58:49;4.93;;;1.38;;
79480;SDS011;68944;48.262;14.208;2023-09-19T10:01:19;5.63;;;2.28;;
79480;SDS011;68944;48.262;14.208;2023-09-19T10:03:46;5.13;;;1.20;;
79480;SDS011;68944;48.262;14.208;2023-09-19T10:06:15;4.40;;;1.10;;
79480;SDS011;68944;48.262;14.208;2023-09-19T10:08:57;4.65;;;1.23;;
79480;SDS011;68944;48.262;14.208;2023-09-19T10:11:43;4.00;;;1.10;;
79480;SDS011;68944;48.262;14.208;2023-09-19T10:14:16;5.90;;;1.40;;
79480;SDS011;68944;48.262;14.208;2023-09-19T10:16:48;5.10;;;1.30;;
79480;SDS011;68944;48.262;14.208;2023-09-19T10:19:23;6.00;;;1.38;;
79480;SDS011;68944;48.262;14.208;2023-09-19T10:21:55;5.97;;;1.20;;
79480;SDS011;68944;48.262;14.208;2023-09-19T10:24:22;8.48;;;1.85;;
79480;SDS011;68944;48.262;14.208;2023-09-19T10:26:51;5.40;;;1.40;;
79480;SDS011;68944;48.262;14.208;2023-09-19T10:29:19;4.35;;;1.00;;
79480;SDS011;68944;48.262;14.208;2023-09-19T10:31:49;3.80;;;1.10;;
79480;SDS011;68944;48.262;14.208;2023-09-19T10:34:18;5.85;;;1.20;;
79480;SDS011;68944;48.262;14.208;2023-09-19T10:36:47;3.50;;;1.08;;
79480;SDS011;68944;48.262;14.208;2023-09-19T10:39:15;3.78;;;1.20;;
79480;SDS011;68944;48.262;14.208;2023-09-19T10:41:47;5.95;;;1.10;;
79480;SDS011;68944;48.262;14.208;2023-09-19T10:46:47;3.15;;;1.00;;
79480;SDS011;68944;48.262;14.208;2023-09-19T10:49:13;4.20;;;1.10;;
79480;SDS011;68944;48.262;14.208;2023-09-19T10:51:40;4.32;;;1.63;;
79480;SDS011;68944;48.262;14.208;2023-09-19T10:54:11;4.70;;;1.20;;
79480;SDS011;68944;48.262;14.208;2023-09-19T10:56:42;3.47;;;1.05;;
79480;SDS011;68944;48.262;14.208;2023-09-19T10:59:17;3.65;;;1.00;;
79480;SDS011;68944;48.262;14.208;2023-09-19T11:01:45;3.65;;;1.10;;
79480;SDS011;68944;48.262;14.208;2023-09-19T11:07:13;5.60;;;1.30;;
79480;SDS011;68944;48.262;14.208;2023-09-19T11:14:55;4.38;;;1.13;;
79480;SDS011;68944;48.262;14.208;2023-09-19T11:30:53;4.30;;;1.70;;
79480;SDS011;68944;48.262;14.208;2023-09-19T11:33:20;6.13;;;1.67;;
79480;SDS011;68944;48.262;14.208;2023-09-19T11:43:53;5.75;;;1.02;;
79480;SDS011;68944;48.262;14.208;2023-09-19T11:49:17;4.13;;;1.13;;
79480;SDS011;68944;48.262;14.208;2023-09-19T11:51:50;3.75;;;1.13;;
79480;SDS011;68944;48.262;14.208;2023-09-19T11:54:19;4.07;;;1.13;;
79480;SDS011;68944;48.262;14.208;2023-09-19T11:56:48;4.30;;;1.10;;
79480;SDS011;68944;48.262;14.208;2023-09-19T12:01:59;5.13;;;1.50;;
79480;SDS011;68944;48.262;14.208;2023-09-19T12:04:35;6.53;;;1.88;;
79480;SDS011;68944;48.262;14.208;2023-09-19T12:07:05;7.90;;;1.50;;
79480;SDS011;68944;48.262;14.208;2023-09-19T12:09:37;5.40;;;1.80;;
79480;SDS011;68944;48.262;14.208;2023-09-19T12:12:05;3.35;;;0.90;;
79480;SDS011;68944;48.262;14.208;2023-09-19T12:14:31;3.45;;;1.10;;
79480;SDS011;68944;48.262;14.208;2023-09-19T12:16:56;4.28;;;1.20;;
79480;SDS011;68944;48.262;14.208;2023-09-19T12:19:23;5.25;;;1.30;;
79480;SDS011;68944;48.262;14.208;2023-09-19T12:21:54;4.40;;;1.35;;
79480;SDS011;68944;48.262;14.208;2023-09-19T12:24:23;3.33;;;1.00;;
79480;SDS011;68944;48.262;14.208;2023-09-19T12:26:51;3.55;;;1.10;;
79480;SDS011;68944;48.262;14.208;2023-09-19T12:29:20;3.67;;;1.05;;
79480;SDS011;68944;48.262;14.208;2023-09-19T12:31:54;7.07;;;1.65;;
79480;SDS011;68944;48.262;14.208;2023-09-19T12:34:23;3.55;;;1.17;;
79480;SDS011;68944;48.262;14.208;2023-09-19T12:39:43;2.75;;;0.93;;
79480;SDS011;68944;48.262;14.208;2023-09-19T12:42:19;4.32;;;1.15;;
79480;SDS011;68944;48.262;14.208;2023-09-19T12:44:49;3.13;;;0.93;;
79480;SDS011;68944;48.262;14.208;2023-09-19T12:47:23;3.38;;;1.02;;
79480;SDS011;68944;48.262;14.208;2023-09-19T12:52:35;2.60;;;1.00;;
79480;SDS011;68944;48.262;14.208;2023-09-19T12:55:25;4.03;;;1.10;;
79480;SDS011;68944;48.262;14.208;2023-09-19T13:00:41;4.00;;;0.93;;
79480;SDS011;68944;48.262;14.208;2023-09-19T13:03:13;2.42;;;0.90;;
79480;SDS011;68944;48.262;14.208;2023-09-19T13:05:57;5.00;;;1.10;;
79480;SDS011;68944;48.262;14.208;2023-09-19T13:08:29;2.42;;;0.85;;
79480;SDS011;68944;48.262;14.208;2023-09-19T13:11:01;3.35;;;1.05;;
79480;SDS011;68944;48.262;14.208;2023-09-19T13:16:52;3.67;;;1.13;;
79480;SDS011;68944;48.262;14.208;2023-09-19T13:19:48;4.60;;;1.05;;
79480;SDS011;68944;48.262;14.208;2023-09-19T13:25:24;3.08;;;0.93;;
79480;SDS011;68944;48.262;14.208;2023-09-19T13:27:54;6.30;;;1.20;;
79480;SDS011;68944;48.262;14.208;2023-09-19T13:30:30;4.43;;;1.13;;
79480;SDS011;68944;48.262;14.208;2023-09-19T13:33:06;3.55;;;1.00;;
79480;SDS011;68944;48.262;14.208;2023-09-19T13:35:34;3.03;;;0.98;;
79480;SDS011;68944;48.262;14.208;2023-09-19T13:38:03;3.08;;;0.80;;
79480;SDS011;68944;48.262;14.208;2023-09-19T13:40:29;9.20;;;1.10;;
79480;SDS011;68944;48.262;14.208;2023-09-19T13:43:00;5.75;;;0.90;;
79480;SDS011;68944;48.262;14.208;2023-09-19T13:45:26;4.43;;;1.10;;
79480;SDS011;68944;48.262;14.208;2023-09-19T13:47:52;3.20;;;0.73;;
79480;SDS011;68944;48.262;14.208;2023-09-19T13:50:18;4.35;;;1.20;;
79480;SDS011;68944;48.262;14.208;2023-09-19T13:52:49;3.47;;;0.90;;
79480;SDS011;68944;48.262;14.208;2023-09-19T13:55:19;5.47;;;0.60;;
79480;SDS011;68944;48.262;14.208;2023-09-19T13:57:46;4.40;;;0.73;;
79480;SDS011;68944;48.262;14.208;2023-09-19T14:00:24;1.50;;;0.50;;
79480;SDS011;68944;48.262;14.208;2023-09-19T14:02:49;1.10;;;0.40;;
79480;SDS011;68944;48.262;14.208;2023-09-19T14:05:16;4.47;;;0.82;;
79480;SDS011;68944;48.262;14.208;2023-09-19T14:07:42;1.93;;;0.70;;
79480;SDS011;68944;48.262;14.208;2023-09-19T14:10:08;4.55;;;0.85;;
79480;SDS011;68944;48.262;14.208;2023-09-19T14:12:38;1.85;;;0.70;;
79480;SDS011;68944;48.262;14.208;2023-09-19T14:15:07;4.93;;;0.88;;
79480;SDS011;68944;48.262;14.208;2023-09-19T14:17:34;4.15;;;0.82;;
79480;SDS011;68944;48.262;14.208;2023-09-19T14:19:59;4.38;;;0.90;;
79480;SDS011;68944;48.262;14.208;2023-09-19T14:22:25;1.58;;;0.52;;
79480;SDS011;68944;48.262;14.208;2023-09-19T14:24:50;3.40;;;0.75;;
79480;SDS011;68944;48.262;14.208;2023-09-19T14:27:17;1.77;;;0.60;;
79480;SDS011;68944;48.262;14.208;2023-09-19T14:29:42;2.60;;;0.85;;
79480;SDS011;68944;48.262;14.208;2023-09-19T14:32:08;1.88;;;0.63;;
79480;SDS011;68944;48.262;14.208;2023-09-19T14:34:33;3.25;;;0.90;;
79480;SDS011;68944;48.262;14.208;2023-09-19T14:37:01;2.20;;;0.70;;
79480;SDS011;68944;48.262;14.208;2023-09-19T14:39:27;5.78;;;1.00;;
79480;SDS011;68944;48.262;14.208;2023-09-19T14:41:53;2.00;;;0.60;;
79480;SDS011;68944;48.262;14.208;2023-09-19T14:44:19;2.65;;;0.73;;
79480;SDS011;68944;48.262;14.208;2023-09-19T14:46:44;2.53;;;0.93;;
79480;SDS011;68944;48.262;14.208;2023-09-19T14:49:10;3.55;;;1.00;;
79480;SDS011;68944;48.262;14.208;2023-09-19T14:51:37;3.70;;;1.10;;
79480;SDS011;68944;48.262;14.208;2023-09-19T14:54:05;3.58;;;0.90;;
79480;SDS011;68944;48.262;14.208;2023-09-19T14:56:32;2.17;;;0.70;;
79480;SDS011;68944;48.262;14.208;2023-09-19T14:58:58;2.15;;;0.73;;
79480;SDS011;68944;48.262;14.208;2023-09-19T15:01:23;4.25;;;0.60;;
79480;SDS011;68944;48.262;14.208;2023-09-19T15:03:49;2.67;;;0.80;;
79480;SDS011;68944;48.262;14.208;2023-09-19T15:06:14;2.15;;;0.63;;
79480;SDS011;68944;48.262;14.208;2023-09-19T15:08:43;3.08;;;0.90;;
79480;SDS011;68944;48.262;14.208;2023-09-19T15:11:13;2.28;;;0.60;;
79480;SDS011;68944;48.262;14.208;2023-09-19T15:13:41;2.90;;;0.70;;
79480;SDS011;68944;48.262;14.208;2023-09-19T15:16:07;3.58;;;0.70;;
79480;SDS011;68944;48.262;14.208;2023-09-19T15:18:34;3.13;;;0.75;;
79480;SDS011;68944;48.262;14.208;2023-09-19T15:21:04;8.32;;;1.15;;
79480;SDS011;68944;48.262;14.208;2023-09-19T15:23:31;5.05;;;1.33;;
79480;SDS011;68944;48.262;14.208;2023-09-19T15:26:06;3.53;;;0.93;;
79480;SDS011;68944;48.262;14.208;2023-09-19T15:28:33;2.30;;;0.80;;
79480;SDS011;68944;48.262;14.208;2023-09-19T15:31:00;1.38;;;0.70;;
79480;SDS011;68944;48.262;14.208;2023-09-19T15:33:30;2.97;;;1.00;;
79480;SDS011;68944;48.262;14.208;2023-09-19T15:41:16;1.80;;;0.70;;
79480;SDS011;68944;48.262;14.208;2023-09-19T15:43:42;3.67;;;0.90;;
79480;SDS011;68944;48.262;14.208;2023-09-19T15:46:07;1.30;;;0.70;;
79480;SDS011;68944;48.262;14.208;2023-09-19T15:48:33;5.18;;;0.90;;
79480;SDS011;68944;48.262;14.208;2023-09-19T15:51:02;1.90;;;0.70;;
79480;SDS011;68944;48.262;14.208;2023-09-19T15:53:30;3.45;;;0.98;;
79480;SDS011;68944;48.262;14.208;2023-09-19T15:56:07;2.33;;;0.80;;
79480;SDS011;68944;48.262;14.208;2023-09-19T15:58:32;4.22;;;1.38;;
79480;SDS011;68944;48.262;14.208;2023-09-19T16:01:04;2.80;;;0.90;;
79480;SDS011;68944;48.262;14.208;2023-09-19T16:03:34;2.55;;;0.65;;
79480;SDS011;68944;48.262;14.208;2023-09-19T16:06:01;4.70;;;1.17;;